Time;durP1;ratioP1;P1;durP2;ratioP2;P2;SDS_P1;SDS_P2;PMS_P1;PMS_P2;Temp;Humidity;BMP_temperature;BMP_pressure;BME280_temperature;BME280_humidity;BME280_pressure;Samples;Min_cycle;Max_cycle;Signal;HPM_P1;HPM_P2
2021/03/28 00:01:38;;;;;;;12.57;8.20;;;;;;;21.97;26.56;97269.72;5066592;28;20056;-60
2021/03/28 00:04:11;;;;;;;12.73;8.13;;;;;;;21.97;26.38;97266.19;5066431;28;20534;-60
2021/03/28 00:06:50;;;;;;;14.73;8.40;;;;;;;21.95;26.25;97271.91;5066202;28;20056;-60
2021/03/28 00:09:22;;;;;;;16.48;8.73;;;;;;;21.94;26.58;97266.72;5066456;28;20045;-61
2021/03/28 00:11:54;;;;;;;11.77;8.18;;;;;;;21.92;26.42;97263.44;5065557;28;20051;-60
2021/03/28 00:14:38;;;;;;;12.18;8.43;;;;;;;21.91;26.18;97264.53;5067338;28;20044;-60
2021/03/28 00:17:35;;;;;;;12.43;7.55;;;;;;;21.89;26.15;97267.53;5066857;28;20423;-60
2021/03/28 00:20:12;;;;;;;13.13;7.90;;;;;;;21.88;26.49;97263.19;5065679;28;20086;-60
2021/03/28 00:23:24;;;;;;;12.60;7.00;;;;;;;21.84;26.55;97256.63;5068841;28;20063;-60
2021/03/28 00:26:04;;;;;;;11.05;6.68;;;;;;;21.83;26.32;97263.16;5063493;28;20048;-60
2021/03/28 00:28:39;;;;;;;10.02;6.35;;;;;;;21.81;26.42;97262.59;5065258;28;20060;-60
2021/03/28 00:31:30;;;;;;;10.50;6.53;;;;;;;21.81;26.29;97251.69;5064686;28;20558;-60
2021/03/28 00:34:14;;;;;;;10.10;6.32;;;;;;;21.78;26.37;97252.25;5064941;28;20047;-60
2021/03/28 00:37:00;;;;;;;9.68;6.35;;;;;;;21.76;26.60;97257.16;5066678;28;20052;-60
2021/03/28 00:39:34;;;;;;;7.65;5.25;;;;;;;21.72;26.39;97256.06;5066185;28;20044;-59
2021/03/28 00:42:08;;;;;;;10.98;5.68;;;;;;;21.73;26.39;97255.78;5066792;28;20074;-60
2021/03/28 00:44:34;;;;;;;8.63;5.60;;;;;;;21.74;26.31;97259.34;5049166;28;20113;-60
2021/03/28 00:47:01;;;;;;;8.10;5.78;;;;;;;21.71;26.42;97249.78;5067127;28;20052;-60
2021/03/28 00:49:35;;;;;;;8.32;5.63;;;;;;;21.70;26.20;97250.06;5066871;28;20048;-60
2021/03/28 00:52:04;;;;;;;9.70;5.77;;;;;;;21.68;26.37;97247.59;5064975;28;20106;-60
2021/03/28 00:54:39;;;;;;;8.82;5.32;;;;;;;21.65;26.44;97248.94;5063917;28;20059;-60
2021/03/28 00:57:14;;;;;;;7.20;4.85;;;;;;;21.64;26.43;97241.03;5086757;28;20039;-60
2021/03/28 01:00:18;;;;;;;6.45;4.57;;;;;;;21.61;26.54;97239.69;5069968;28;20047;-60
2021/03/28 01:03:06;;;;;;;8.95;5.32;;;;;;;21.59;26.18;97230.94;5049894;28;20519;-60
2021/03/28 01:05:50;;;;;;;6.20;4.80;;;;;;;21.55;26.20;97229.03;5069793;28;20059;-60
2021/03/28 01:08:25;;;;;;;6.03;4.30;;;;;;;21.55;26.17;97237.22;5069353;28;20468;-60
2021/03/28 01:11:04;;;;;;;7.20;4.80;;;;;;;21.54;26.17;97227.38;5069250;28;20063;-60
2021/03/28 01:14:13;;;;;;;6.43;4.82;;;;;;;21.52;26.35;97224.09;5086737;28;20071;-60
2021/03/28 01:17:13;;;;;;;6.13;4.20;;;;;;;21.49;26.34;97219.22;5066426;28;20048;-60
2021/03/28 01:20:09;;;;;;;6.30;4.30;;;;;;;21.47;26.33;97211.28;5066170;28;20068;-60
2021/03/28 01:22:43;;;;;;;5.13;3.88;;;;;;;21.46;26.46;97215.13;5065082;28;20063;-60
2021/03/28 01:25:24;;;;;;;6.10;4.22;;;;;;;21.44;26.23;97220.03;5065914;28;20044;-60
2021/03/28 01:28:17;;;;;;;5.45;3.78;;;;;;;21.41;26.49;97202.25;5066082;28;20086;-60
2021/03/28 01:30:51;;;;;;;6.13;4.00;;;;;;;21.39;26.28;97203.59;5065823;28;20040;-60
2021/03/28 01:33:30;;;;;;;5.80;3.33;;;;;;;21.36;26.32;97210.41;5064809;28;20043;-60
2021/03/28 01:36:05;;;;;;;6.75;3.97;;;;;;;21.36;26.22;97212.34;5064771;28;20060;-60
2021/03/28 01:38:36;;;;;;;4.93;3.65;;;;;;;21.34;26.39;97206.34;5064665;28;20507;-59
2021/03/28 01:41:17;;;;;;;6.47;3.78;;;;;;;21.30;25.96;97211.50;5047824;28;20076;-60
2021/03/28 01:44:10;;;;;;;5.82;3.60;;;;;;;21.28;26.13;97212.84;5050405;28;20052;-60
2021/03/28 01:46:55;;;;;;;5.28;3.40;;;;;;;21.28;26.21;97216.38;5064608;28;20075;-60
2021/03/28 01:49:43;;;;;;;5.82;3.58;;;;;;;21.25;26.37;97211.50;5064482;28;20601;-60
2021/03/28 01:52:43;;;;;;;4.82;3.28;;;;;;;21.23;26.41;97216.38;5066001;28;20052;-60
2021/03/28 01:55:26;;;;;;;4.45;3.25;;;;;;;21.19;26.11;97218.00;5030318;28;20061;-60
2021/03/28 01:58:03;;;;;;;5.28;3.13;;;;;;;21.19;26.44;97226.19;5028410;28;20057;-61
2021/03/28 02:01:07;;;;;;;3.78;3.42;;;;;;;21.14;26.25;97218.78;5045830;28;20091;-60
2021/03/28 02:03:42;;;;;;;3.55;2.55;;;;;;;21.11;26.13;97222.06;5023094;28;20053;-60
2021/03/28 02:06:29;;;;;;;4.40;2.85;;;;;;;21.09;26.36;97205.16;5042738;28;20094;-60
2021/03/28 02:09:01;;;;;;;4.95;2.88;;;;;;;21.09;26.41;97213.31;5045545;28;20052;-60
2021/03/28 02:11:35;;;;;;;4.93;2.63;;;;;;;21.07;26.54;97209.25;5044848;28;20084;-60
2021/03/28 02:14:32;;;;;;;3.97;3.17;;;;;;;21.04;26.43;97214.13;5044659;28;20048;-60
2021/03/28 02:16:59;;;;;;;3.10;2.50;;;;;;;21.02;26.19;97210.84;5030908;28;20049;-60
2021/03/28 02:19:33;;;;;;;4.70;2.50;;;;;;;20.99;26.13;97218.72;5048505;28;20066;-60
2021/03/28 02:22:12;;;;;;;4.17;2.50;;;;;;;20.98;26.45;97214.38;5064369;28;20060;-60
2021/03/28 02:24:37;;;;;;;3.88;2.63;;;;;;;20.95;26.65;97213.00;5065877;28;20125;-60
2021/03/28 02:27:18;;;;;;;2.90;2.47;;;;;;;20.93;26.56;97217.06;5064831;28;20052;-60
2021/03/28 02:30:08;;;;;;;3.10;2.72;;;;;;;20.90;26.51;97218.44;5065893;28;20052;-60
2021/03/28 02:32:54;;;;;;;3.58;2.78;;;;;;;20.88;26.31;97217.06;5063888;28;20033;-60
2021/03/28 02:35:51;;;;;;;3.20;2.30;;;;;;;20.85;26.40;97218.38;5063744;28;20045;-60
2021/03/28 02:38:22;;;;;;;3.67;2.50;;;;;;;20.83;26.55;97215.09;5065903;28;20407;-60
2021/03/28 02:41:13;;;;;;;3.13;2.35;;;;;;;20.81;26.43;97220.84;5063975;28;20060;-60
2021/03/28 02:44:07;;;;;;;4.25;2.40;;;;;;;20.77;26.44;97225.19;5034558;28;20148;-60
2021/03/28 02:46:52;;;;;;;3.53;2.40;;;;;;;20.74;26.37;97228.41;5064958;28;20044;-60
2021/03/28 02:49:40;;;;;;;3.10;2.10;;;;;;;20.71;26.55;97222.69;5048870;28;20397;-61
2021/03/28 02:52:11;;;;;;;3.28;2.53;;;;;;;20.71;26.20;97223.50;5064183;28;20052;-60
2021/03/28 02:55:11;;;;;;;2.70;1.70;;;;;;;20.69;26.68;97222.94;5082949;28;20499;-60
2021/03/28 02:57:49;;;;;;;2.30;2.10;;;;;;;20.66;26.24;97226.19;5088514;28;20280;-60
2021/03/28 03:00:51;;;;;;;2.83;1.90;;;;;;;20.64;26.19;97221.03;5090150;28;20088;-60
2021/03/28 03:03:39;;;;;;;2.28;1.95;;;;;;;20.59;26.61;97215.53;5089475;28;20055;-60
2021/03/28 03:06:31;;;;;;;2.95;2.13;;;;;;;20.56;26.28;97221.50;5087990;28;20059;-60
2021/03/28 03:09:28;;;;;;;3.72;2.05;;;;;;;20.55;26.40;97216.31;5087872;28;20047;-60
2021/03/28 03:12:19;;;;;;;2.25;1.92;;;;;;;20.53;26.59;97213.03;5089077;28;20051;-60
2021/03/28 03:15:22;;;;;;;2.70;1.67;;;;;;;20.48;26.41;97208.38;5089984;28;20131;-60
2021/03/28 03:17:53;;;;;;;2.25;1.58;;;;;;;20.47;26.59;97209.44;5089076;28;20082;-61
2021/03/28 03:20:25;;;;;;;2.17;1.60;;;;;;;20.46;26.72;97205.09;5088558;28;20052;-61
2021/03/28 03:23:17;;;;;;;2.20;1.70;;;;;;;20.43;26.51;97213.75;5088816;28;20060;-60
2021/03/28 03:26:01;;;;;;;2.10;1.55;;;;;;;20.40;26.65;97214.31;5089123;28;20036;-60
2021/03/28 03:29:17;;;;;;;2.22;1.30;;;;;;;20.38;26.63;97211.84;5088051;28;20083;-60
2021/03/28 03:31:49;;;;;;;3.53;1.70;;;;;;;20.34;26.65;97210.72;5071325;28;20060;-60
2021/03/28 03:34:45;;;;;;;2.00;1.70;;;;;;;20.33;26.46;97213.69;5088911;28;20047;-60
2021/03/28 03:37:20;;;;;;;2.10;1.63;;;;;;;20.30;26.76;97211.50;5087777;28;20052;-60
2021/03/28 03:40:01;;;;;;;2.63;1.52;;;;;;;20.26;26.62;97208.47;5089069;28;20048;-60
2021/03/28 03:42:57;;;;;;;2.90;1.48;;;;;;;20.25;26.39;97209.59;5087999;28;20063;-60
2021/03/28 03:45:43;;;;;;;2.03;1.50;;;;;;;20.21;26.74;97214.72;5088189;28;20046;-60
2021/03/28 03:48:08;;;;;;;2.72;1.50;;;;;;;20.19;26.41;97208.72;5087264;28;20055;-60
2021/03/28 03:50:40;;;;;;;2.78;1.95;;;;;;;20.20;26.57;97217.69;5087855;28;20070;-60
2021/03/28 03:53:15;;;;;;;3.03;2.00;;;;;;;20.17;26.85;97216.31;5084172;28;20135;-60
2021/03/28 03:55:42;;;;;;;1.85;1.40;;;;;;;20.12;26.60;97218.16;5068007;28;21106;-60
2021/03/28 03:58:41;;;;;;;2.38;1.40;;;;;;;20.12;26.49;97215.44;5033721;28;20064;-60
2021/03/28 04:01:10;;;;;;;1.95;1.40;;;;;;;20.07;26.80;97213.50;5066594;28;20422;-60
2021/03/28 04:03:45;;;;;;;1.75;1.20;;;;;;;20.04;26.67;97217.59;5066611;28;20072;-60
2021/03/28 04:06:17;;;;;;;1.33;1.23;;;;;;;20.03;26.64;97224.09;5066198;28;20056;-60
2021/03/28 04:09:08;;;;;;;3.08;1.48;;;;;;;20.00;26.59;97226.53;5068074;28;20052;-60
2021/03/28 04:12:00;;;;;;;1.27;1.15;;;;;;;19.98;26.36;97224.06;5049456;28;20052;-60
2021/03/28 04:14:44;;;;;;;1.67;1.50;;;;;;;19.95;26.71;97221.84;5062799;28;20049;-60
2021/03/28 04:17:31;;;;;;;2.00;1.30;;;;;;;19.93;26.53;97221.31;5047061;28;20144;-59
2021/03/28 04:20:03;;;;;;;1.77;1.40;;;;;;;19.92;26.54;97221.56;5046832;28;20140;-60
2021/03/28 04:22:38;;;;;;;2.00;1.38;;;;;;;19.90;26.56;97224.53;5047200;28;20164;-60
2021/03/28 04:25:23;;;;;;;2.72;1.40;;;;;;;19.87;26.91;97227.78;5045714;28;20128;-60
2021/03/28 04:28:04;;;;;;;2.03;1.23;;;;;;;19.83;26.75;97230.19;5047407;28;20056;-60
2021/03/28 04:30:57;;;;;;;1.98;1.05;;;;;;;19.83;26.81;97237.53;5046548;28;20049;-60
2021/03/28 04:33:41;;;;;;;2.22;1.30;;;;;;;19.79;26.86;97241.84;5047230;28;20524;-60
2021/03/28 04:36:38;;;;;;;1.65;1.30;;;;;;;19.76;26.86;97242.34;5046733;28;20475;-60
2021/03/28 04:39:25;;;;;;;1.55;1.38;;;;;;;19.74;26.56;97245.31;5057586;28;20045;-60
2021/03/28 04:42:24;;;;;;;1.92;1.20;;;;;;;19.72;26.53;97250.19;5046646;28;20057;-59
2021/03/28 04:45:02;;;;;;;1.15;1.02;;;;;;;19.68;26.76;97254.47;5046482;28;20516;-59
2021/03/28 04:47:48;;;;;;;1.98;1.20;;;;;;;19.63;26.73;97251.69;5048814;28;20048;-59
2021/03/28 04:50:14;;;;;;;2.63;1.23;;;;;;;19.63;26.70;97268.00;5046286;28;20424;-59
2021/03/28 04:53:00;;;;;;;1.30;1.17;;;;;;;19.60;26.32;97276.69;5046651;28;20052;-59
2021/03/28 04:56:00;;;;;;;1.52;1.20;;;;;;;19.60;26.57;97285.66;5086061;28;20474;-60
2021/03/28 04:58:37;;;;;;;1.55;1.45;;;;;;;19.55;26.64;97293.72;5086926;28;20131;-60
2021/03/28 05:01:29;;;;;;;0.95;0.95;;;;;;;19.53;26.56;97289.63;5085489;28;20048;-59
2021/03/28 05:04:30;;;;;;;1.60;1.38;;;;;;;19.49;26.63;97294.75;5086886;28;20055;-60
2021/03/28 05:07:17;;;;;;;1.63;1.25;;;;;;;19.46;26.53;97291.72;5066409;28;20051;-60
2021/03/28 05:10:15;;;;;;;1.80;1.38;;;;;;;19.45;26.86;97301.75;5087418;28;20048;-60
2021/03/28 05:12:59;;;;;;;1.55;1.30;;;;;;;19.40;26.59;97302.53;5063368;28;20134;-60
2021/03/28 05:16:09;;;;;;;2.42;1.35;;;;;;;19.41;26.52;97316.94;5085397;28;20050;-60
2021/03/28 05:18:59;;;;;;;1.30;1.20;;;;;;;19.38;26.88;97314.72;5038929;28;20475;-60
2021/03/28 05:21:25;;;;;;;1.30;1.20;;;;;;;19.34;26.59;97319.03;5046577;28;20094;-60
2021/03/28 05:24:01;;;;;;;1.52;1.20;;;;;;;19.33;26.87;97320.09;5046140;28;20127;-60
2021/03/28 05:26:41;;;;;;;2.00;1.15;;;;;;;19.32;26.88;97321.16;5046151;28;20049;-60
2021/03/28 05:29:25;;;;;;;1.65;1.20;;;;;;;19.30;26.59;97326.84;5046629;28;20057;-59
2021/03/28 05:32:29;;;;;;;1.10;1.10;;;;;;;19.25;26.56;97332.22;5046549;28;20524;-60
2021/03/28 05:34:57;;;;;;;1.27;1.17;;;;;;;19.23;27.02;97331.66;5046298;28;20849;-60
2021/03/28 05:37:37;;;;;;;1.35;1.02;;;;;;;19.19;26.74;97331.31;5046691;28;20443;-60
2021/03/28 05:40:28;;;;;;;1.25;1.15;;;;;;;19.17;26.88;97330.75;5045849;28;20045;-60
2021/03/28 05:43:21;;;;;;;1.73;0.98;;;;;;;19.15;26.83;97329.38;5046068;28;20052;-60
2021/03/28 05:46:05;;;;;;;1.17;1.08;;;;;;;19.12;27.11;97330.69;5047043;28;20060;-60
2021/03/28 05:48:49;;;;;;;1.10;1.10;;;;;;;19.10;26.99;97338.28;5045473;28;20556;-61
2021/03/28 05:51:40;;;;;;;1.40;1.20;;;;;;;19.04;27.01;97336.56;5046842;28;20048;-60
2021/03/28 05:54:43;;;;;;;0.98;0.98;;;;;;;19.06;27.06;97349.91;5068653;28;20052;-59
2021/03/28 05:57:36;;;;;;;1.33;1.20;;;;;;;19.05;27.07;97349.06;5085940;28;20410;-60
2021/03/28 06:00:26;;;;;;;1.45;1.13;;;;;;;19.03;27.14;97341.19;5083507;28;20530;-59
2021/03/28 06:03:16;;;;;;;0.82;0.82;;;;;;;19.00;26.96;97349.00;5063998;28;20050;-59
2021/03/28 06:05:57;;;;;;;2.60;1.42;;;;;;;18.97;27.07;97354.91;5065926;28;20397;-59
2021/03/28 06:08:56;;;;;;;0.90;0.85;;;;;;;18.96;26.98;97348.66;5065385;28;20056;-60
2021/03/28 06:11:27;;;;;;;1.65;1.25;;;;;;;18.94;27.15;97350.81;5065646;28;20074;-59
2021/03/28 06:14:18;;;;;;;1.38;1.10;;;;;;;18.93;27.28;97351.88;5065296;28;20068;-60
2021/03/28 06:16:53;;;;;;;1.20;1.10;;;;;;;18.92;27.20;97358.38;5066394;28;20066;-59
2021/03/28 06:19:27;;;;;;;1.27;1.00;;;;;;;18.90;27.03;97363.22;5043916;28;20101;-60
2021/03/28 06:22:29;;;;;;;1.42;1.33;;;;;;;18.88;27.02;97369.97;5044306;28;20060;-59
2021/03/28 06:25:25;;;;;;;1.25;1.00;;;;;;;18.87;27.29;97376.50;5046701;28;20181;-60
2021/03/28 06:27:57;;;;;;;1.30;1.20;;;;;;;18.86;27.08;97382.97;5045810;28;20598;-60
2021/03/28 06:30:33;;;;;;;0.90;0.90;;;;;;;18.86;27.46;97388.41;5049180;28;20948;-60
2021/03/28 06:33:21;;;;;;;1.38;0.88;;;;;;;18.70;27.26;97369.16;5047926;28;20064;-60
2021/03/28 06:35:59;;;;;;;1.40;1.27;;;;;;;18.83;27.45;97387.03;5050467;28;20049;-59
2021/03/28 06:39:03;;;;;;;1.23;1.05;;;;;;;18.78;27.26;97390.47;5047914;28;20052;-59
2021/03/28 06:41:56;;;;;;;1.17;1.00;;;;;;;18.76;27.51;97386.31;5087783;28;20048;-59
2021/03/28 06:44:40;;;;;;;2.13;1.20;;;;;;;18.74;27.46;97383.03;5087967;28;21238;-59
2021/03/28 06:47:12;;;;;;;1.23;1.10;;;;;;;18.72;27.33;97393.31;5087539;28;20062;-59
2021/03/28 06:50:09;;;;;;;1.45;1.02;;;;;;;18.71;27.42;97406.06;5082009;28;20704;-59
2021/03/28 06:52:59;;;;;;;1.40;1.30;;;;;;;18.68;27.34;97403.00;5066280;28;20076;-59
2021/03/28 06:55:44;;;;;;;1.15;1.00;;;;;;;18.67;27.79;97407.63;5068065;28;20056;-59
2021/03/28 06:58:43;;;;;;;1.23;1.13;;;;;;;18.68;27.75;97411.16;5065658;28;20052;-58
2021/03/28 07:01:25;;;;;;;1.33;1.23;;;;;;;18.64;27.85;97414.38;5037525;28;20093;-58
2021/03/28 07:04:24;;;;;;;1.67;1.15;;;;;;;18.63;27.82;97401.88;5052024;28;20064;-58
2021/03/28 07:06:58;;;;;;;1.80;1.70;;;;;;;18.84;27.93;97415.78;5067175;28;20064;-58
2021/03/28 07:09:52;;;;;;;1.40;1.30;;;;;;;18.86;27.60;97405.50;5068479;28;20802;-58
2021/03/28 07:12:40;;;;;;;1.48;1.20;;;;;;;18.88;27.58;97406.09;5069258;28;20044;-60
2021/03/28 07:15:27;;;;;;;2.42;1.63;;;;;;;18.92;27.74;97414.56;5065688;28;20097;-58
2021/03/28 07:18:24;;;;;;;1.50;1.40;;;;;;;18.89;27.64;97407.75;5047677;28;20053;-58
2021/03/28 07:21:11;;;;;;;3.60;1.42;;;;;;;18.91;28.02;97402.91;5053202;28;20534;-59
2021/03/28 07:23:51;;;;;;;1.75;1.63;;;;;;;18.93;28.33;97405.34;5060801;28;20468;-59
2021/03/28 07:26:37;;;;;;;3.55;1.40;;;;;;;18.94;28.98;97407.81;5067906;28;20052;-61
2021/03/28 07:29:18;;;;;;;2.80;1.67;;;;;;;18.95;29.00;97409.47;5066165;28;20049;-58
2021/03/28 07:31:49;;;;;;;4.35;2.22;;;;;;;18.96;29.22;97413.00;5067336;28;20048;-58
2021/03/28 07:34:34;;;;;;;1.35;1.20;;;;;;;18.99;29.00;97426.06;5069288;28;20048;-59
2021/03/28 07:37:25;;;;;;;2.67;1.27;;;;;;;18.96;29.01;97429.28;5068253;28;20457;-59
2021/03/28 07:40:28;;;;;;;2.75;1.30;;;;;;;18.96;28.95;97421.97;5068035;28;20060;-59
2021/03/28 07:43:11;;;;;;;2.78;1.42;;;;;;;18.95;28.68;97420.34;5068509;28;20098;-59
2021/03/28 07:45:57;;;;;;;2.53;1.60;;;;;;;18.93;28.93;97427.91;5066837;28;20097;-58
2021/03/28 07:48:38;;;;;;;2.75;1.67;;;;;;;18.96;28.75;97423.88;5066825;28;20137;-58
2021/03/28 07:51:41;;;;;;;2.00;1.52;;;;;;;18.94;28.71;97417.84;5067902;28;20036;-59
2021/03/28 07:54:25;;;;;;;1.73;1.20;;;;;;;18.90;28.66;97419.41;5079691;28;20059;-57
2021/03/28 07:57:15;;;;;;;2.40;1.30;;;;;;;18.88;28.72;97427.81;5087418;28;20044;-58
2021/03/28 07:59:43;;;;;;;3.70;1.50;;;;;;;18.89;28.67;97432.19;5088119;28;20566;-58
2021/03/28 08:02:46;;;;;;;1.55;1.30;;;;;;;18.90;28.52;97433.00;5087964;28;20071;-58
2021/03/28 08:05:21;;;;;;;3.92;1.38;;;;;;;18.83;28.63;97436.69;5089013;28;20444;-58
2021/03/28 08:07:50;;;;;;;3.23;1.50;;;;;;;18.81;28.83;97441.53;5067307;28;20458;-58
2021/03/28 08:10:46;;;;;;;2.95;1.60;;;;;;;18.75;29.06;97445.22;5066924;28;20048;-58
2021/03/28 08:13:30;;;;;;;2.10;1.90;;;;;;;18.73;29.36;97454.66;5065569;28;20050;-58
2021/03/28 08:16:20;;;;;;;4.30;2.23;;;;;;;18.64;28.82;97448.84;5067020;28;20569;-58
2021/03/28 08:18:55;;;;;;;4.45;2.17;;;;;;;18.63;28.49;97447.16;5070293;28;20165;-58
2021/03/28 08:21:27;;;;;;;2.70;1.88;;;;;;;18.57;28.13;97454.41;5066269;28;20040;-58
2021/03/28 08:24:14;;;;;;;4.38;2.05;;;;;;;18.57;27.74;97449.00;5066501;28;20804;-58
2021/03/28 08:26:59;;;;;;;2.28;1.50;;;;;;;18.56;27.48;97449.22;5067165;28;20110;-57
2021/03/28 08:29:40;;;;;;;3.20;1.80;;;;;;;18.56;27.18;97446.50;5064512;28;20555;-57
2021/03/28 08:32:21;;;;;;;4.50;1.73;;;;;;;18.53;27.04;97442.41;5066601;28;20201;-58
2021/03/28 08:35:24;;;;;;;3.65;1.92;;;;;;;18.51;27.28;97438.28;5068027;28;20048;-58
2021/03/28 08:37:59;;;;;;;4.82;1.77;;;;;;;18.50;26.65;97442.06;5065650;28;20055;-58
2021/03/28 08:40:39;;;;;;;;;;;;;;;18.44;26.68;97455.53;5068231;28;20059;-59
2021/03/28 08:43:24;;;;;;;5.35;2.17;;;;;;;18.42;26.98;97467.69;5066635;28;20292;-58
2021/03/28 08:46:11;;;;;;;3.75;1.63;;;;;;;18.43;26.67;97474.78;5025897;28;20086;-57
2021/03/28 08:48:56;;;;;;;5.40;1.50;;;;;;;18.40;26.63;97473.34;5067773;28;20056;-58
2021/03/28 08:51:27;;;;;;;2.40;1.20;;;;;;;18.38;26.87;97464.63;5064811;28;20052;-59
2021/03/28 08:53:59;;;;;;;3.13;1.73;;;;;;;18.38;26.47;97466.53;5075869;28;20052;-59
2021/03/28 08:56:40;;;;;;;3.75;1.40;;;;;;;18.42;26.72;97470.41;5067362;28;20052;-59
2021/03/28 08:59:08;;;;;;;4.35;1.55;;;;;;;18.42;26.86;97464.97;5048678;28;20048;-59
2021/03/28 09:01:37;;;;;;;7.03;1.88;;;;;;;18.44;26.74;97470.97;5066508;28;20040;-60
2021/03/28 09:04:24;;;;;;;6.85;2.08;;;;;;;18.41;26.90;97468.78;5065188;28;20048;-59
2021/03/28 09:07:13;;;;;;;3.10;1.50;;;;;;;18.39;27.09;97460.88;5066858;28;20140;-59
2021/03/28 09:09:53;;;;;;;5.47;2.20;;;;;;;18.38;26.96;97455.66;5056979;28;20127;-59
2021/03/28 09:12:35;;;;;;;5.43;2.67;;;;;;;18.36;27.08;97457.81;5066119;28;20056;-59
2021/03/28 09:15:30;;;;;;;8.57;4.53;;;;;;;18.37;27.02;97467.59;5066671;28;20040;-58
2021/03/28 09:18:17;;;;;;;5.43;3.70;;;;;;;18.36;27.29;97463.22;5063413;28;20105;-58
2021/03/28 09:20:58;;;;;;;8.95;5.10;;;;;;;18.36;27.24;97461.38;5058537;28;20084;-58
2021/03/28 09:23:46;;;;;;;12.63;6.90;;;;;;;18.36;27.97;97452.38;5065591;28;20134;-62
2021/03/28 09:26:26;;;;;;;33.63;15.40;;;;;;;18.31;28.94;97446.88;5066588;28;20044;-58
2021/03/28 09:29:13;;;;;;;71.90;27.98;;;;;;;18.40;30.22;97467.09;5066297;28;20688;-58
2021/03/28 09:31:43;;;;;;;76.78;26.15;;;;;;;18.35;29.81;97472.44;5066783;28;20181;-57
2021/03/28 09:34:46;;;;;;;79.78;30.88;;;;;;;18.31;30.63;97471.28;5065049;28;20080;-58
2021/03/28 09:37:23;;;;;;;80.20;32.85;;;;;;;18.32;31.25;97467.50;5060652;28;20094;-57
2021/03/28 09:40:09;;;;;;;86.93;32.63;;;;;;;18.31;31.41;97460.44;5064024;28;20048;-58
2021/03/28 09:43:12;;;;;;;100.75;39.80;;;;;;;18.31;32.31;97460.44;5065177;28;20065;-57
2021/03/28 09:45:42;;;;;;;104.85;43.80;;;;;;;18.31;32.31;97460.44;5065977;28;20139;-57
2021/03/28 09:48:26;;;;;;;97.47;46.75;;;;;;;18.34;32.30;97465.34;5064942;28;20056;-57
2021/03/28 09:51:02;;;;;;;95.43;43.65;;;;;;;18.31;32.16;97463.97;5063908;28;20060;-57
2021/03/28 09:53:55;;;;;;;89.13;40.80;;;;;;;18.28;31.95;97467.19;5071379;28;20130;-57
2021/03/28 09:56:59;;;;;;;74.72;33.38;;;;;;;18.25;31.35;97469.53;5085637;28;20036;-57
2021/03/28 09:59:31;;;;;;;66.32;29.63;;;;;;;18.22;31.14;97477.09;5045035;28;20052;-57
2021/03/28 10:02:34;;;;;;;48.50;22.45;;;;;;;18.19;30.65;97472.13;5047799;28;20480;-56
2021/03/28 10:05:23;;;;;;;47.70;20.67;;;;;;;18.18;30.15;97481.34;5045556;28;20053;-57
2021/03/28 10:08:04;;;;;;;40.10;18.33;;;;;;;18.18;30.15;97475.94;5064713;28;20064;-57
2021/03/28 10:10:39;;;;;;;36.40;15.30;;;;;;;18.18;29.91;97477.81;5065233;28;20205;-57
2021/03/28 10:13:29;;;;;;;19.95;9.02;;;;;;;18.13;29.95;97486.66;5044559;28;20147;-57
2021/03/28 10:16:17;;;;;;;12.73;5.40;;;;;;;17.92;29.84;97482.72;5048311;28;20068;-57
2021/03/28 10:18:58;;;;;;;10.85;5.28;;;;;;;17.95;29.42;97486.84;5048079;28;20085;-58
2021/03/28 10:21:55;;;;;;;11.20;3.53;;;;;;;17.93;29.47;97481.66;5064418;28;20427;-57
2021/03/28 10:24:27;;;;;;;8.73;3.03;;;;;;;17.91;29.46;97483.78;5062770;28;20105;-58
2021/03/28 10:27:05;;;;;;;9.85;3.03;;;;;;;17.86;29.13;97483.66;5063778;28;20095;-58
2021/03/28 10:29:49;;;;;;;6.75;2.30;;;;;;;17.87;28.88;97477.19;5046613;28;20500;-58
2021/03/28 10:32:36;;;;;;;4.88;2.30;;;;;;;17.91;28.67;97477.53;5063131;28;20503;-58
2021/03/28 10:35:26;;;;;;;4.45;2.10;;;;;;;17.94;28.89;97471.63;5065405;28;20106;-58
2021/03/28 10:38:16;;;;;;;7.35;2.13;;;;;;;17.94;28.89;97466.22;5064306;28;20044;-59
2021/03/28 10:40:52;;;;;;;6.90;1.65;;;;;;;17.94;28.69;97463.50;5065135;28;20064;-58
2021/03/28 10:43:35;;;;;;;5.22;1.52;;;;;;;17.96;28.79;97469.50;5065078;28;20427;-59
2021/03/28 10:46:12;;;;;;;3.38;2.00;;;;;;;17.97;28.90;97454.91;5065006;28;20040;-58
2021/03/28 10:49:08;;;;;;;3.75;1.95;;;;;;;17.97;28.85;97463.03;5062576;28;20059;-58
2021/03/28 10:52:11;;;;;;;4.32;1.90;;;;;;;17.95;29.06;97465.97;5064782;28;20071;-58
2021/03/28 10:54:56;;;;;;;3.63;1.70;;;;;;;17.95;28.92;97462.44;5065208;28;20056;-58
2021/03/28 10:57:46;;;;;;;2.65;1.50;;;;;;;17.94;28.74;97453.47;5064153;28;20041;-59
2021/03/28 11:00:23;;;;;;;2.30;1.33;;;;;;;17.93;28.63;97456.44;5063246;28;20048;-58
2021/03/28 11:03:24;;;;;;;2.22;1.20;;;;;;;17.94;28.81;97463.50;5064709;28;20729;-58
2021/03/28 11:06:05;;;;;;;3.30;1.17;;;;;;;17.92;28.98;97454.78;5059167;28;20052;-58
2021/03/28 11:09:08;;;;;;;3.60;1.33;;;;;;;17.97;28.96;97453.00;5066016;28;20524;-57
2021/03/28 11:11:45;;;;;;;3.78;1.15;;;;;;;17.98;29.13;97448.41;5065288;28;20051;-57
2021/03/28 11:14:29;;;;;;;5.68;1.77;;;;;;;17.98;29.69;97453.81;5062853;28;20052;-57
2021/03/28 11:17:17;;;;;;;7.72;2.53;;;;;;;17.98;29.79;97453.81;5068187;28;20195;-57
2021/03/28 11:20:05;;;;;;;8.85;3.20;;;;;;;17.96;30.16;97451.34;5051565;28;20388;-58
2021/03/28 11:22:54;;;;;;;9.60;2.60;;;;;;;17.95;30.05;97446.19;5068506;28;20454;-57
2021/03/28 11:25:26;;;;;;;5.70;2.33;;;;;;;17.99;30.32;97447.34;5067084;28;20817;-58
2021/03/28 11:27:54;;;;;;;8.73;2.40;;;;;;;17.97;30.13;97444.06;5049197;28;20063;-57
2021/03/28 11:30:52;;;;;;;7.15;2.35;;;;;;;17.96;30.16;97436.97;5056909;28;20041;-58
2021/03/28 11:33:30;;;;;;;7.68;2.70;;;;;;;17.91;30.09;97432.28;5068747;28;20044;-57
2021/03/28 11:35:56;;;;;;;7.20;2.10;;;;;;;17.97;29.99;97431.31;5050853;28;20526;-57
2021/03/28 11:38:22;;;;;;;6.05;2.20;;;;;;;17.99;30.08;97428.38;5068025;28;20056;-57
2021/03/28 11:40:51;;;;;;;4.93;2.17;;;;;;;17.98;30.27;97437.56;5068762;28;20047;-57
2021/03/28 11:43:43;;;;;;;3.40;1.27;;;;;;;17.98;30.36;97426.72;5068988;28;20523;-57
2021/03/28 11:46:28;;;;;;;3.90;1.75;;;;;;;18.00;30.46;97435.44;5067455;28;20300;-57
2021/03/28 11:48:53;;;;;;;3.90;1.67;;;;;;;18.02;30.65;97442.25;5066264;28;20113;-58
2021/03/28 11:51:19;;;;;;;3.55;1.70;;;;;;;18.01;30.21;97443.34;5068369;28;20056;-57
2021/03/28 11:53:44;;;;;;;4.15;1.67;;;;;;;18.01;30.37;97437.09;5078065;28;20054;-58
2021/03/28 11:57:04;;;;;;;3.85;1.70;;;;;;;18.01;30.57;97437.09;5053467;28;20063;-57
2021/03/28 11:59:32;;;;;;;2.47;1.30;;;;;;;18.03;30.06;97440.41;5024951;28;20601;-57
2021/03/28 12:02:10;;;;;;;2.00;1.23;;;;;;;18.03;30.24;97449.34;5022218;28;20076;-57
2021/03/28 12:04:41;;;;;;;3.92;1.67;;;;;;;18.05;30.22;97440.97;5047510;28;20055;-57
2021/03/28 12:07:37;;;;;;;3.67;1.67;;;;;;;18.07;30.08;97438.00;5046570;28;20052;-57
2021/03/28 12:10:03;;;;;;;2.85;1.50;;;;;;;18.07;30.35;97440.72;5051437;28;20052;-58
2021/03/28 12:12:47;;;;;;;1.95;1.70;;;;;;;18.06;30.28;97434.47;5067623;28;20053;-57
2021/03/28 12:16:00;;;;;;;2.40;1.50;;;;;;;18.07;30.30;97440.72;5067515;28;20124;-57
2021/03/28 12:18:29;;;;;;;4.70;1.88;;;;;;;18.10;30.33;97441.06;5056630;28;20057;-57
2021/03/28 12:21:04;;;;;;;2.38;1.55;;;;;;;18.13;30.43;97427.00;5065628;28;20048;-57
2021/03/28 12:23:48;;;;;;;3.47;1.80;;;;;;;18.14;30.58;97425.97;5079300;28;20057;-57
2021/03/28 12:26:18;;;;;;;4.17;1.50;;;;;;;17.97;30.58;97398.78;5064102;28;20044;-57
2021/03/28 12:29:09;;;;;;;7.13;2.05;;;;;;;18.11;30.18;97422.91;5063465;28;20707;-57
2021/03/28 12:31:41;;;;;;;5.30;1.92;;;;;;;18.10;30.45;97416.66;5058575;28;20056;-57
2021/03/28 12:34:25;;;;;;;6.03;2.47;;;;;;;18.12;30.73;97419.94;5061023;28;20053;-58
2021/03/28 12:37:04;;;;;;;5.07;2.03;;;;;;;18.14;30.83;97417.81;5058572;28;20072;-59
2021/03/28 12:39:44;;;;;;;5.63;2.53;;;;;;;18.14;30.72;97415.09;5062436;28;20087;-57
2021/03/28 12:42:22;;;;;;;4.68;1.67;;;;;;;18.13;31.04;97416.16;5060514;28;20163;-57
2021/03/28 12:45:16;;;;;;;6.32;1.50;;;;;;;18.15;30.70;97405.91;5060248;28;20139;-57
2021/03/28 12:47:51;;;;;;;5.35;1.92;;;;;;;18.12;30.61;97414.53;5051762;28;20048;-57
2021/03/28 12:50:37;;;;;;;4.13;1.80;;;;;;;18.05;30.22;97410.31;5060491;28;20068;-58